createdAt,value
2023-01-02T00:02:53.065Z,6.87
2023-01-02T00:07:56.298Z,9.77
2023-01-02T00:12:59.136Z,10.13
2023-01-02T00:18:06.344Z,11.57
2023-01-02T00:23:12.362Z,8.77
2023-01-02T00:28:15.242Z,9.47
2023-01-02T00:33:19.605Z,11.10
2023-01-02T00:38:22.698Z,14.67
2023-01-02T00:43:25.544Z,13.43
2023-01-02T00:48:30.678Z,16.00
2023-01-02T00:53:36.132Z,11.80
2023-01-02T00:58:38.995Z,16.30
2023-01-02T01:03:44.029Z,17.97
2023-01-02T01:08:47.033Z,15.57
2023-01-02T01:13:58.676Z,13.27
2023-01-02T01:19:02.933Z,21.77
2023-01-02T01:24:06.362Z,17.70
2023-01-02T01:29:09.190Z,19.17
2023-01-02T01:34:36.703Z,18.93
2023-01-02T01:39:42.355Z,19.13
2023-01-02T01:44:47.598Z,17.53
2023-01-02T01:49:53.015Z,20.87
2023-01-02T01:54:59.259Z,15.60
2023-01-02T02:00:26.002Z,20.33
2023-01-02T02:05:31.852Z,19.03
2023-01-02T02:10:37.814Z,19.13
2023-01-02T02:15:45.247Z,22.07
2023-01-02T02:20:55.969Z,18.40
2023-01-02T02:26:29.563Z,22.67
2023-01-02T02:31:37.861Z,18.97
2023-01-02T02:36:42.457Z,16.27
2023-01-02T02:41:49.437Z,16.10
2023-01-02T02:46:57.923Z,19.37
2023-01-02T02:52:05.996Z,16.57
2023-01-02T02:57:09.248Z,19.40
2023-01-02T03:02:16.353Z,29.70
2023-01-02T03:07:23.775Z,17.47
2023-01-02T03:12:35.801Z,16.97
2023-01-02T03:17:50.842Z,24.73
2023-01-02T03:22:56.827Z,18.13
2023-01-02T03:28:01.442Z,19.60
2023-01-02T03:33:11.111Z,22.43
2023-01-02T03:38:20.322Z,21.80
2023-01-02T03:43:26.064Z,17.23
2023-01-02T03:48:34.135Z,14.30
2023-01-02T03:53:38.244Z,21.87
2023-01-02T03:58:46.319Z,16.87
2023-01-02T04:03:52.977Z,15.20
2023-01-02T04:09:01.354Z,17.70
2023-01-02T04:14:10.801Z,14.80
2023-01-02T04:19:18.903Z,15.17
2023-01-02T04:24:25.990Z,13.10
2023-01-02T04:29:30.882Z,11.40
2023-01-02T04:34:37.095Z,4.90
2023-01-02T04:39:40.291Z,3.97
2023-01-02T04:45:08.342Z,5.03
2023-01-02T04:50:12.850Z,6.33
2023-01-02T04:55:15.747Z,6.20
2023-01-02T05:00:18.781Z,5.50
2023-01-02T05:05:22.922Z,4.90
2023-01-02T05:10:25.721Z,5.97
2023-01-02T05:15:29.708Z,4.73
2023-01-02T05:20:33.916Z,4.37
2023-01-02T05:25:37.233Z,4.90
2023-01-02T05:30:40.362Z,5.93
2023-01-02T05:35:44.551Z,5.27
2023-01-02T05:46:13.904Z,5.43
2023-01-02T05:51:18.923Z,8.80
2023-01-02T05:56:21.981Z,3.27
2023-01-02T06:01:26.356Z,8.07
2023-01-02T06:06:33.704Z,5.20
2023-01-02T06:11:37.486Z,8.50
2023-01-02T06:16:40.626Z,3.47
2023-01-02T06:21:44.803Z,5.07
2023-01-02T06:26:47.610Z,2.77
2023-01-02T06:31:51.715Z,2.07
2023-01-02T06:36:56.489Z,1.90
2023-01-02T06:41:59.279Z,1.60
2023-01-02T06:47:02.066Z,2.07
2023-01-02T06:52:06.472Z,2.90
2023-01-02T06:57:09.264Z,2.73
2023-01-02T07:02:12.668Z,2.37
2023-01-02T07:07:17.026Z,2.43
2023-01-02T07:12:19.907Z,1.83
2023-01-02T07:17:22.710Z,3.37
2023-01-02T07:22:27.332Z,1.80
2023-01-02T07:27:30.275Z,3.77
2023-01-02T07:32:33.173Z,6.37
2023-01-02T07:37:37.381Z,2.67
2023-01-02T07:42:40.263Z,3.03
2023-01-02T07:47:43.178Z,3.73
2023-01-02T07:52:47.550Z,3.10
2023-01-02T07:57:53.254Z,2.13
2023-01-02T08:02:56.092Z,1.60
2023-01-02T08:08:00.404Z,2.67
2023-01-02T08:13:03.305Z,1.33
2023-01-02T08:18:06.279Z,3.23
2023-01-02T08:23:10.643Z,4.73
2023-01-02T08:28:13.507Z,1.83
2023-01-02T08:33:16.364Z,8.20
2023-01-02T08:38:20.900Z,2.33
2023-01-02T08:43:23.734Z,11.53
2023-01-02T08:48:26.622Z,2.67
2023-01-02T08:53:31.407Z,3.50
2023-01-02T08:58:34.328Z,4.57
2023-01-02T09:03:37.241Z,9.70
2023-01-02T09:08:41.527Z,3.97
2023-01-02T09:13:45.002Z,2.07
2023-01-02T09:18:47.828Z,2.40
2023-01-02T09:23:52.025Z,6.30
2023-01-02T09:28:54.989Z,5.07
2023-01-02T09:34:00.905Z,18.77
2023-01-02T09:39:05.943Z,8.57
2023-01-02T09:44:12.665Z,4.27
2023-01-02T09:49:17.106Z,10.10
2023-01-02T09:54:25.465Z,5.27
2023-01-02T09:59:31.629Z,8.57
2023-01-02T10:04:43.306Z,10.40
2023-01-02T10:09:54.677Z,10.23
2023-01-02T10:15:00.715Z,51.53
2023-01-02T10:20:06.581Z,27.67
2023-01-02T10:25:15.994Z,14.53
2023-01-02T10:30:21.207Z,13.43
2023-01-02T10:35:32.706Z,19.97
2023-01-02T10:40:37.252Z,19.23
2023-01-02T10:45:40.117Z,9.43
2023-01-02T10:50:45.632Z,12.17
2023-01-02T10:55:52.264Z,13.73
2023-01-02T11:01:05.878Z,9.40
2023-01-02T11:06:30.123Z,8.03
2023-01-02T11:11:36.814Z,5.10
2023-01-02T11:16:41.937Z,14.07
2023-01-02T11:21:46.705Z,5.73
2023-01-02T11:26:51.254Z,9.43
2023-01-02T11:31:59.465Z,16.07
2023-01-02T11:37:06.246Z,6.53
2023-01-02T11:42:38.639Z,7.43
2023-01-02T11:47:43.922Z,3.90
2023-01-02T11:52:54.383Z,7.07
2023-01-02T11:58:01.399Z,9.00
2023-01-02T12:03:07.306Z,4.57
2023-01-02T12:08:16.443Z,3.40
2023-01-02T12:13:38.722Z,2.67
2023-01-02T12:18:58.530Z,2.50
2023-01-02T12:24:15.224Z,12.57
2023-01-02T12:29:48.205Z,6.23
2023-01-02T12:35:01.252Z,5.03
2023-01-02T12:40:09.434Z,5.43
2023-01-02T12:45:21.034Z,5.60
2023-01-02T12:50:34.469Z,7.20
2023-01-02T12:55:47.508Z,10.27
2023-01-02T13:01:15.193Z,8.30
2023-01-02T13:06:44.849Z,6.80
2023-01-02T13:11:46.388Z,10.70
2023-01-02T13:16:52.571Z,16.60
2023-01-02T13:22:00.163Z,8.80
2023-01-02T13:27:03.107Z,5.63
2023-01-02T13:32:07.528Z,9.27
2023-01-02T13:37:13.270Z,6.37
2023-01-02T13:42:42.857Z,5.13
2023-01-02T13:47:51.839Z,3.50
2023-01-02T13:53:21.975Z,6.10
2023-01-02T13:58:40.915Z,3.07
2023-01-02T14:03:47.810Z,6.10
2023-01-02T14:09:09.026Z,7.07
2023-01-02T14:14:13.714Z,14.00
2023-01-02T14:19:25.080Z,8.93
2023-01-02T14:24:31.277Z,5.27
2023-01-02T14:29:42.384Z,5.40
2023-01-02T14:34:49.975Z,4.67
2023-01-02T14:39:52.988Z,3.17
2023-01-02T14:44:58.919Z,7.27
2023-01-02T14:50:04.949Z,3.03
2023-01-02T14:55:13.862Z,9.27
2023-01-02T15:00:29.883Z,7.10
2023-01-02T15:05:37.157Z,7.17
2023-01-02T15:10:56.205Z,1.93
2023-01-02T15:16:00.375Z,7.20
2023-01-02T15:21:08.839Z,5.83
2023-01-02T15:26:31.798Z,7.57
2023-01-02T15:31:40.462Z,2.10
2023-01-02T15:36:44.826Z,2.67
2023-01-02T15:41:50.228Z,4.23
2023-01-02T15:46:53.368Z,4.27
2023-01-02T15:51:58.996Z,7.17
2023-01-02T15:57:06.891Z,5.57
2023-01-02T16:02:19.096Z,4.03
2023-01-02T16:07:27.193Z,13.57
2023-01-02T16:12:30.014Z,3.10
2023-01-02T16:17:35.327Z,3.77
2023-01-02T16:22:45.269Z,15.03
2023-01-02T16:27:51.476Z,3.43
2023-01-02T16:32:54.376Z,18.40
2023-01-02T16:37:59.290Z,7.17
2023-01-02T16:43:03.139Z,6.87
2023-01-02T16:48:07.637Z,6.57
2023-01-02T16:53:17.292Z,4.90
2023-01-02T16:58:20.248Z,4.77
2023-01-02T17:03:26.635Z,7.37
2023-01-02T17:08:31.964Z,6.73
2023-01-02T17:13:34.938Z,6.70
2023-01-02T17:18:37.819Z,12.10
2023-01-02T17:23:42.041Z,4.20
2023-01-02T17:28:44.958Z,5.20
2023-01-02T17:33:47.782Z,7.17
2023-01-02T17:38:52.013Z,3.67
2023-01-02T17:44:02.718Z,4.73
2023-01-02T17:49:06.891Z,4.63
2023-01-02T17:54:12.327Z,5.73
2023-01-02T17:59:19.593Z,8.43
2023-01-02T18:04:22.453Z,5.93
2023-01-02T18:09:26.865Z,5.70
2023-01-02T18:14:29.842Z,7.03
2023-01-02T18:19:34.294Z,5.03
2023-01-02T18:24:38.523Z,4.83
2023-01-02T18:29:41.991Z,4.60
2023-01-02T18:34:48.810Z,6.97
2023-01-02T18:39:55.395Z,8.33
2023-01-02T18:45:00.474Z,6.77
2023-01-02T18:50:24.297Z,3.70
2023-01-02T18:55:34.101Z,6.23
2023-01-02T19:00:41.318Z,4.37
2023-01-02T19:05:45.273Z,10.30
2023-01-02T19:10:53.146Z,2.67
2023-01-02T19:15:58.767Z,4.47
2023-01-02T19:21:11.198Z,6.33
2023-01-02T19:26:20.027Z,11.97
2023-01-02T19:31:25.901Z,6.50
2023-01-02T19:36:36.877Z,5.67
2023-01-02T19:41:58.767Z,7.27
2023-01-02T19:47:02.377Z,9.80
2023-01-02T19:52:06.240Z,6.60
2023-01-02T19:57:11.600Z,3.53
2023-01-02T20:02:15.846Z,5.73
2023-01-02T20:07:18.802Z,3.73
2023-01-02T20:12:34.445Z,5.17
2023-01-02T20:17:38.554Z,8.10
2023-01-02T20:22:43.428Z,2.20
2023-01-02T20:27:48.541Z,6.20
2023-01-02T20:32:51.414Z,4.53
2023-01-02T20:37:54.324Z,3.90
2023-01-02T20:42:58.625Z,4.50
2023-01-02T20:48:01.563Z,3.67
2023-01-02T20:53:04.422Z,4.67
2023-01-02T20:58:09.081Z,4.63
2023-01-02T21:03:13.241Z,6.80
2023-01-02T21:08:16.206Z,5.13
2023-01-02T21:13:20.461Z,2.00
2023-01-02T21:18:25.401Z,5.63
2023-01-02T21:23:29.843Z,2.90
2023-01-02T21:28:34.163Z,1.80
2023-01-02T21:33:37.187Z,2.47
2023-01-02T21:38:40.125Z,2.43
2023-01-02T21:43:44.422Z,4.83
2023-01-02T21:48:47.308Z,2.47
2023-01-02T21:53:50.225Z,4.87
2023-01-02T21:58:55.193Z,1.90
2023-01-02T22:03:58.061Z,4.87
2023-01-02T22:09:01.081Z,6.20
2023-01-02T22:14:05.755Z,2.77
2023-01-02T22:19:08.643Z,3.27
2023-01-02T22:24:11.748Z,1.43
2023-01-02T22:29:16.617Z,1.30
2023-01-02T22:34:20.775Z,4.43
2023-01-02T22:39:28.371Z,4.07
2023-01-02T22:44:33.039Z,1.43
2023-01-02T22:49:37.425Z,1.50
2023-01-02T22:54:40.619Z,1.57
2023-01-02T22:59:44.929Z,1.23
2023-01-02T23:04:48.997Z,11.00
2023-01-02T23:09:51.811Z,1.43
2023-01-02T23:14:56.022Z,3.50
2023-01-02T23:19:58.895Z,3.40
2023-01-02T23:25:04.010Z,2.57
2023-01-02T23:30:09.555Z,3.27
2023-01-02T23:35:12.510Z,1.67
2023-01-02T23:40:15.390Z,2.63
2023-01-02T23:45:19.614Z,3.60
2023-01-02T23:50:22.689Z,3.97
2023-01-02T23:55:25.530Z,4.93
